sensor_id;sensor_type;location;lat;lon;timestamp;temperature;humidity
70460;DHT22;57920;54.796;9.430;2022-11-20T00:02:15;18.40;41.10
70460;DHT22;57920;54.796;9.430;2022-11-20T00:04:40;18.40;41.10
70460;DHT22;57920;54.796;9.430;2022-11-20T00:07:06;18.40;41.10
70460;DHT22;57920;54.796;9.430;2022-11-20T00:09:34;18.40;41.10
70460;DHT22;57920;54.796;9.430;2022-11-20T00:11:59;18.40;41.10
70460;DHT22;57920;54.796;9.430;2022-11-20T00:14:25;18.30;41.10
70460;DHT22;57920;54.796;9.430;2022-11-20T00:16:50;18.30;41.20
70460;DHT22;57920;54.796;9.430;2022-11-20T00:19:16;18.30;41.20
70460;DHT22;57920;54.796;9.430;2022-11-20T00:21:41;18.30;41.20
70460;DHT22;57920;54.796;9.430;2022-11-20T00:24:10;18.30;41.20
70460;DHT22;57920;54.796;9.430;2022-11-20T00:26:36;18.30;41.20
70460;DHT22;57920;54.796;9.430;2022-11-20T00:29:01;18.20;41.20
70460;DHT22;57920;54.796;9.430;2022-11-20T00:31:27;18.20;41.30
70460;DHT22;57920;54.796;9.430;2022-11-20T00:33:53;18.20;41.20
70460;DHT22;57920;54.796;9.430;2022-11-20T00:36:20;18.30;41.20
70460;DHT22;57920;54.796;9.430;2022-11-20T00:38:50;18.30;41.20
70460;DHT22;57920;54.796;9.430;2022-11-20T00:41:16;18.30;41.10
70460;DHT22;57920;54.796;9.430;2022-11-20T00:43:42;18.30;41.20
70460;DHT22;57920;54.796;9.430;2022-11-20T00:46:10;18.30;41.10
70460;DHT22;57920;54.796;9.430;2022-11-20T00:48:36;18.30;41.00
70460;DHT22;57920;54.796;9.430;2022-11-20T00:51:01;18.30;41.00
70460;DHT22;57920;54.796;9.430;2022-11-20T00:53:27;18.40;41.00
70460;DHT22;57920;54.796;9.430;2022-11-20T00:58:23;18.30;41.00
70460;DHT22;57920;54.796;9.430;2022-11-20T01:00:50;18.30;41.10
70460;DHT22;57920;54.796;9.430;2022-11-20T01:03:19;18.30;41.10
70460;DHT22;57920;54.796;9.430;2022-11-20T01:05:44;18.30;41.10
70460;DHT22;57920;54.796;9.430;2022-11-20T01:08:10;18.30;41.10
70460;DHT22;57920;54.796;9.430;2022-11-20T01:10:36;18.30;41.20
70460;DHT22;57920;54.796;9.430;2022-11-20T01:13:02;18.30;41.20
70460;DHT22;57920;54.796;9.430;2022-11-20T01:15:45;18.30;41.00
70460;DHT22;57920;54.796;9.430;2022-11-20T01:18:11;18.30;41.00
70460;DHT22;57920;54.796;9.430;2022-11-20T01:20:37;18.30;41.00
70460;DHT22;57920;54.796;9.430;2022-11-20T01:23:03;18.40;40.90
70460;DHT22;57920;54.796;9.430;2022-11-20T01:25:29;18.40;40.90
70460;DHT22;57920;54.796;9.430;2022-11-20T01:27:55;18.50;40.80
70460;DHT22;57920;54.796;9.430;2022-11-20T01:30:20;18.50;40.70
70460;DHT22;57920;54.796;9.430;2022-11-20T01:32:46;18.60;40.70
70460;DHT22;57920;54.796;9.430;2022-11-20T01:35:12;18.60;40.70
70460;DHT22;57920;54.796;9.430;2022-11-20T01:37:37;18.60;40.60
70460;DHT22;57920;54.796;9.430;2022-11-20T01:40:03;18.70;40.60
70460;DHT22;57920;54.796;9.430;2022-11-20T01:42:29;18.70;40.50
70460;DHT22;57920;54.796;9.430;2022-11-20T01:48:17;18.60;40.60
70460;DHT22;57920;54.796;9.430;2022-11-20T01:50:43;18.60;40.70
70460;DHT22;57920;54.796;9.430;2022-11-20T01:53:13;18.50;40.70
70460;DHT22;57920;54.796;9.430;2022-11-20T01:55:44;18.50;40.80
70460;DHT22;57920;54.796;9.430;2022-11-20T01:58:11;18.50;40.90
70460;DHT22;57920;54.796;9.430;2022-11-20T02:00:37;18.40;40.90
70460;DHT22;57920;54.796;9.430;2022-11-20T02:03:08;18.40;40.90
70460;DHT22;57920;54.796;9.430;2022-11-20T02:05:45;18.40;41.00
70460;DHT22;57920;54.796;9.430;2022-11-20T02:08:11;18.40;41.00
70460;DHT22;57920;54.796;9.430;2022-11-20T02:10:39;18.40;40.90
70460;DHT22;57920;54.796;9.430;2022-11-20T02:13:04;18.40;40.90
70460;DHT22;57920;54.796;9.430;2022-11-20T02:15:49;18.50;40.90
70460;DHT22;57920;54.796;9.430;2022-11-20T02:18:18;18.50;40.80
70460;DHT22;57920;54.796;9.430;2022-11-20T02:20:46;18.50;40.80
70460;DHT22;57920;54.796;9.430;2022-11-20T02:23:21;18.50;40.80
70460;DHT22;57920;54.796;9.430;2022-11-20T02:25:53;18.60;40.80
70460;DHT22;57920;54.796;9.430;2022-11-20T02:28:19;18.60;40.70
70460;DHT22;57920;54.796;9.430;2022-11-20T02:30:45;18.60;40.70
70460;DHT22;57920;54.796;9.430;2022-11-20T02:33:11;18.60;40.70
70460;DHT22;57920;54.796;9.430;2022-11-20T02:35:43;18.60;40.70
70460;DHT22;57920;54.796;9.430;2022-11-20T02:38:09;18.60;40.70
70460;DHT22;57920;54.796;9.430;2022-11-20T02:40:35;18.60;40.70
70460;DHT22;57920;54.796;9.430;2022-11-20T02:43:00;18.60;40.70
70460;DHT22;57920;54.796;9.430;2022-11-20T02:45:26;18.60;40.70
70460;DHT22;57920;54.796;9.430;2022-11-20T02:47:52;18.50;40.80
70460;DHT22;57920;54.796;9.430;2022-11-20T02:50:18;18.50;40.90
70460;DHT22;57920;54.796;9.430;2022-11-20T02:52:43;18.40;41.00
70460;DHT22;57920;54.796;9.430;2022-11-20T02:55:09;18.40;41.10
70460;DHT22;57920;54.796;9.430;2022-11-20T02:57:35;18.40;41.10
70460;DHT22;57920;54.796;9.430;2022-11-20T03:00:02;18.30;41.10
70460;DHT22;57920;54.796;9.430;2022-11-20T03:02:31;18.30;41.10
70460;DHT22;57920;54.796;9.430;2022-11-20T03:04:57;18.40;41.00
70460;DHT22;57920;54.796;9.430;2022-11-20T03:07:23;18.40;41.10
70460;DHT22;57920;54.796;9.430;2022-11-20T03:09:48;18.40;41.00
70460;DHT22;57920;54.796;9.430;2022-11-20T03:12:14;18.50;41.10
70460;DHT22;57920;54.796;9.430;2022-11-20T03:14:40;18.50;40.90
70460;DHT22;57920;54.796;9.430;2022-11-20T03:17:05;18.50;40.90
70460;DHT22;57920;54.796;9.430;2022-11-20T03:19:31;18.50;40.90
70460;DHT22;57920;54.796;9.430;2022-11-20T03:21:57;18.50;40.90
70460;DHT22;57920;54.796;9.430;2022-11-20T03:24:23;18.60;40.90
70460;DHT22;57920;54.796;9.430;2022-11-20T03:26:48;18.50;40.90
70460;DHT22;57920;54.796;9.430;2022-11-20T03:29:14;18.50;40.90
70460;DHT22;57920;54.796;9.430;2022-11-20T03:31:40;18.50;40.90
70460;DHT22;57920;54.796;9.430;2022-11-20T03:34:07;18.50;41.00
70460;DHT22;57920;54.796;9.430;2022-11-20T03:36:33;18.50;40.90
70460;DHT22;57920;54.796;9.430;2022-11-20T03:38:59;18.40;41.00
70460;DHT22;57920;54.796;9.430;2022-11-20T03:41:27;18.40;41.10
70460;DHT22;57920;54.796;9.430;2022-11-20T03:43:58;18.40;41.20
70460;DHT22;57920;54.796;9.430;2022-11-20T03:46:24;18.30;41.20
70460;DHT22;57920;54.796;9.430;2022-11-20T03:48:50;18.30;41.20
70460;DHT22;57920;54.796;9.430;2022-11-20T03:51:22;18.30;41.30
70460;DHT22;57920;54.796;9.430;2022-11-20T03:53:49;18.30;41.30
70460;DHT22;57920;54.796;9.430;2022-11-20T03:56:17;18.30;41.20
70460;DHT22;57920;54.796;9.430;2022-11-20T03:58:43;18.30;41.20
70460;DHT22;57920;54.796;9.430;2022-11-20T04:01:21;18.40;41.20
70460;DHT22;57920;54.796;9.430;2022-11-20T04:03:47;18.40;41.20
70460;DHT22;57920;54.796;9.430;2022-11-20T04:06:20;18.40;41.00
70460;DHT22;57920;54.796;9.430;2022-11-20T04:08:47;18.50;41.00
70460;DHT22;57920;54.796;9.430;2022-11-20T04:11:17;18.50;41.00
70460;DHT22;57920;54.796;9.430;2022-11-20T04:13:46;18.50;41.00
70460;DHT22;57920;54.796;9.430;2022-11-20T04:16:18;18.50;41.00
70460;DHT22;57920;54.796;9.430;2022-11-20T04:18:44;18.50;41.00
70460;DHT22;57920;54.796;9.430;2022-11-20T04:21:10;18.50;41.00
70460;DHT22;57920;54.796;9.430;2022-11-20T04:23:36;18.50;41.10
70460;DHT22;57920;54.796;9.430;2022-11-20T04:26:10;18.50;41.10
70460;DHT22;57920;54.796;9.430;2022-11-20T04:28:36;18.50;41.10
70460;DHT22;57920;54.796;9.430;2022-11-20T04:31:16;18.40;41.10
70460;DHT22;57920;54.796;9.430;2022-11-20T04:33:43;18.40;41.20
70460;DHT22;57920;54.796;9.430;2022-11-20T04:36:14;18.30;41.20
70460;DHT22;57920;54.796;9.430;2022-11-20T04:38:40;18.30;41.30
70460;DHT22;57920;54.796;9.430;2022-11-20T04:41:07;18.30;41.30
70460;DHT22;57920;54.796;9.430;2022-11-20T04:43:33;18.30;41.40
70460;DHT22;57920;54.796;9.430;2022-11-20T04:46:00;18.30;41.30
70460;DHT22;57920;54.796;9.430;2022-11-20T04:48:26;18.30;41.20
70460;DHT22;57920;54.796;9.430;2022-11-20T04:50:52;18.30;41.20
70460;DHT22;57920;54.796;9.430;2022-11-20T04:53:19;18.40;41.20
70460;DHT22;57920;54.796;9.430;2022-11-20T04:55:44;18.40;41.10
70460;DHT22;57920;54.796;9.430;2022-11-20T04:58:11;18.40;41.10
70460;DHT22;57920;54.796;9.430;2022-11-20T05:00:36;18.50;41.00
70460;DHT22;57920;54.796;9.430;2022-11-20T05:03:02;18.50;41.00
70460;DHT22;57920;54.796;9.430;2022-11-20T05:05:28;18.50;41.00
70460;DHT22;57920;54.796;9.430;2022-11-20T05:07:56;18.50;41.00
70460;DHT22;57920;54.796;9.430;2022-11-20T05:10:21;18.50;41.10
70460;DHT22;57920;54.796;9.430;2022-11-20T05:12:47;18.40;41.10
70460;DHT22;57920;54.796;9.430;2022-11-20T05:15:12;18.40;41.10
70460;DHT22;57920;54.796;9.430;2022-11-20T05:17:38;18.40;41.10
70460;DHT22;57920;54.796;9.430;2022-11-20T05:20:04;18.40;41.20
70460;DHT22;57920;54.796;9.430;2022-11-20T05:22:29;18.40;41.20
70460;DHT22;57920;54.796;9.430;2022-11-20T05:24:55;18.30;41.20
70460;DHT22;57920;54.796;9.430;2022-11-20T05:27:20;18.30;41.30
70460;DHT22;57920;54.796;9.430;2022-11-20T05:29:46;18.30;41.20
70460;DHT22;57920;54.796;9.430;2022-11-20T05:32:11;18.30;41.30
70460;DHT22;57920;54.796;9.430;2022-11-20T05:34:37;18.30;41.20
70460;DHT22;57920;54.796;9.430;2022-11-20T05:37:03;18.30;41.20
70460;DHT22;57920;54.796;9.430;2022-11-20T05:39:28;18.30;41.20
70460;DHT22;57920;54.796;9.430;2022-11-20T05:41:54;18.40;41.20
70460;DHT22;57920;54.796;9.430;2022-11-20T05:44:38;18.40;41.20
70460;DHT22;57920;54.796;9.430;2022-11-20T05:47:04;18.50;41.10
70460;DHT22;57920;54.796;9.430;2022-11-20T05:49:30;18.50;41.00
70460;DHT22;57920;54.796;9.430;2022-11-20T05:51:56;18.50;41.00
70460;DHT22;57920;54.796;9.430;2022-11-20T05:54:21;18.50;41.00
70460;DHT22;57920;54.796;9.430;2022-11-20T05:56:47;18.50;41.10
70460;DHT22;57920;54.796;9.430;2022-11-20T05:59:12;18.50;41.10
70460;DHT22;57920;54.796;9.430;2022-11-20T06:01:38;18.40;41.10
70460;DHT22;57920;54.796;9.430;2022-11-20T06:04:04;18.40;41.20
70460;DHT22;57920;54.796;9.430;2022-11-20T06:06:29;18.40;41.20
70460;DHT22;57920;54.796;9.430;2022-11-20T06:08:55;18.30;41.20
70460;DHT22;57920;54.796;9.430;2022-11-20T06:11:21;18.30;41.30
70460;DHT22;57920;54.796;9.430;2022-11-20T06:13:47;18.30;41.40
70460;DHT22;57920;54.796;9.430;2022-11-20T06:16:15;18.30;41.40
70460;DHT22;57920;54.796;9.430;2022-11-20T06:18:41;18.30;41.40
70460;DHT22;57920;54.796;9.430;2022-11-20T06:21:13;18.30;41.40
70460;DHT22;57920;54.796;9.430;2022-11-20T06:23:39;18.30;41.40
70460;DHT22;57920;54.796;9.430;2022-11-20T06:26:10;18.30;41.30
70460;DHT22;57920;54.796;9.430;2022-11-20T06:28:37;18.30;41.20
70460;DHT22;57920;54.796;9.430;2022-11-20T06:31:05;18.40;41.20
70460;DHT22;57920;54.796;9.430;2022-11-20T06:33:32;18.40;41.10
70460;DHT22;57920;54.796;9.430;2022-11-20T06:35:59;18.50;41.00
70460;DHT22;57920;54.796;9.430;2022-11-20T06:38:25;18.50;41.00
70460;DHT22;57920;54.796;9.430;2022-11-20T06:40:51;18.50;41.00
70460;DHT22;57920;54.796;9.430;2022-11-20T06:43:17;18.50;40.90
70460;DHT22;57920;54.796;9.430;2022-11-20T06:45:42;18.50;41.00
70460;DHT22;57920;54.796;9.430;2022-11-20T06:48:08;18.50;41.00
70460;DHT22;57920;54.796;9.430;2022-11-20T06:50:36;18.50;41.10
70460;DHT22;57920;54.796;9.430;2022-11-20T06:53:02;18.40;41.10
70460;DHT22;57920;54.796;9.430;2022-11-20T06:55:29;18.40;41.20
70460;DHT22;57920;54.796;9.430;2022-11-20T06:57:54;18.40;41.20
70460;DHT22;57920;54.796;9.430;2022-11-20T07:00:20;18.30;41.30
70460;DHT22;57920;54.796;9.430;2022-11-20T07:02:45;18.30;41.40
70460;DHT22;57920;54.796;9.430;2022-11-20T07:05:11;18.20;41.40
70460;DHT22;57920;54.796;9.430;2022-11-20T07:07:36;18.20;41.50
70460;DHT22;57920;54.796;9.430;2022-11-20T07:10:02;18.20;41.40
70460;DHT22;57920;54.796;9.430;2022-11-20T07:12:28;18.20;41.40
70460;DHT22;57920;54.796;9.430;2022-11-20T07:14:53;18.30;41.30
70460;DHT22;57920;54.796;9.430;2022-11-20T07:17:19;18.30;41.20
70460;DHT22;57920;54.796;9.430;2022-11-20T07:19:44;18.30;41.20
70460;DHT22;57920;54.796;9.430;2022-11-20T07:22:10;18.40;41.20
70460;DHT22;57920;54.796;9.430;2022-11-20T07:24:35;18.40;41.00
70460;DHT22;57920;54.796;9.430;2022-11-20T07:27:01;18.40;40.90
70460;DHT22;57920;54.796;9.430;2022-11-20T07:29:26;18.50;40.90
70460;DHT22;57920;54.796;9.430;2022-11-20T07:31:52;18.50;40.90
70460;DHT22;57920;54.796;9.430;2022-11-20T07:34:17;18.50;40.90
70460;DHT22;57920;54.796;9.430;2022-11-20T07:36:43;18.50;40.80
70460;DHT22;57920;54.796;9.430;2022-11-20T07:39:08;18.50;40.80
70460;DHT22;57920;54.796;9.430;2022-11-20T07:41:34;18.50;40.80
70460;DHT22;57920;54.796;9.430;2022-11-20T07:43:59;18.50;40.80
70460;DHT22;57920;54.796;9.430;2022-11-20T07:46:25;18.50;40.90
70460;DHT22;57920;54.796;9.430;2022-11-20T07:48:51;18.50;40.90
70460;DHT22;57920;54.796;9.430;2022-11-20T07:51:16;18.40;40.90
70460;DHT22;57920;54.796;9.430;2022-11-20T07:53:42;18.40;41.00
70460;DHT22;57920;54.796;9.430;2022-11-20T07:56:07;18.30;41.10
70460;DHT22;57920;54.796;9.430;2022-11-20T07:58:33;18.30;41.10
70460;DHT22;57920;54.796;9.430;2022-11-20T08:01:06;18.30;41.20
70460;DHT22;57920;54.796;9.430;2022-11-20T08:03:33;18.30;41.20
70460;DHT22;57920;54.796;9.430;2022-11-20T08:05:59;18.30;41.30
70460;DHT22;57920;54.796;9.430;2022-11-20T08:08:28;18.30;41.20
70460;DHT22;57920;54.796;9.430;2022-11-20T08:10:54;18.30;41.10
70460;DHT22;57920;54.796;9.430;2022-11-20T08:13:41;18.30;41.00
70460;DHT22;57920;54.796;9.430;2022-11-20T08:16:25;18.40;40.90
70460;DHT22;57920;54.796;9.430;2022-11-20T08:18:51;18.40;41.00
70460;DHT22;57920;54.796;9.430;2022-11-20T08:21:16;18.50;40.90
70460;DHT22;57920;54.796;9.430;2022-11-20T08:23:42;18.50;40.80
70460;DHT22;57920;54.796;9.430;2022-11-20T08:26:07;18.50;40.80
70460;DHT22;57920;54.796;9.430;2022-11-20T08:28:33;18.60;40.70
70460;DHT22;57920;54.796;9.430;2022-11-20T08:30:59;18.60;40.70
70460;DHT22;57920;54.796;9.430;2022-11-20T08:33:25;18.50;40.70
70460;DHT22;57920;54.796;9.430;2022-11-20T08:35:51;18.50;40.80
70460;DHT22;57920;54.796;9.430;2022-11-20T08:38:16;18.50;40.80
70460;DHT22;57920;54.796;9.430;2022-11-20T08:40:42;18.50;40.80
70460;DHT22;57920;54.796;9.430;2022-11-20T08:43:27;18.50;40.80
70460;DHT22;57920;54.796;9.430;2022-11-20T08:45:53;18.40;40.80
70460;DHT22;57920;54.796;9.430;2022-11-20T08:48:21;18.40;40.90
70460;DHT22;57920;54.796;9.430;2022-11-20T08:50:46;18.40;41.00
70460;DHT22;57920;54.796;9.430;2022-11-20T08:53:12;18.30;41.00
70460;DHT22;57920;54.796;9.430;2022-11-20T08:55:37;18.30;41.10
70460;DHT22;57920;54.796;9.430;2022-11-20T08:58:05;18.30;41.10
70460;DHT22;57920;54.796;9.430;2022-11-20T09:00:32;18.20;41.20
70460;DHT22;57920;54.796;9.430;2022-11-20T09:02:57;18.20;41.20
70460;DHT22;57920;54.796;9.430;2022-11-20T09:05:24;18.30;41.20
70460;DHT22;57920;54.796;9.430;2022-11-20T09:07:50;18.30;41.00
70460;DHT22;57920;54.796;9.430;2022-11-20T09:10:15;18.30;40.90
70460;DHT22;57920;54.796;9.430;2022-11-20T09:12:41;18.40;40.90
70460;DHT22;57920;54.796;9.430;2022-11-20T09:15:07;18.40;40.80
70460;DHT22;57920;54.796;9.430;2022-11-20T09:17:32;18.50;40.80
70460;DHT22;57920;54.796;9.430;2022-11-20T09:19:58;18.50;40.70
70460;DHT22;57920;54.796;9.430;2022-11-20T09:22:24;18.60;40.60
70460;DHT22;57920;54.796;9.430;2022-11-20T09:24:49;18.60;40.60
70460;DHT22;57920;54.796;9.430;2022-11-20T09:27:15;18.60;40.60
70460;DHT22;57920;54.796;9.430;2022-11-20T09:29:45;18.60;40.50
70460;DHT22;57920;54.796;9.430;2022-11-20T09:32:11;18.60;40.60
70460;DHT22;57920;54.796;9.430;2022-11-20T09:34:37;18.60;40.60
70460;DHT22;57920;54.796;9.430;2022-11-20T09:37:02;18.50;40.70
70460;DHT22;57920;54.796;9.430;2022-11-20T09:39:28;18.50;40.70
70460;DHT22;57920;54.796;9.430;2022-11-20T09:47:19;18.40;40.70
70460;DHT22;57920;54.796;9.430;2022-11-20T09:50:18;18.40;40.80
70460;DHT22;57920;54.796;9.430;2022-11-20T09:53:13;18.30;40.90
70460;DHT22;57920;54.796;9.430;2022-11-20T09:55:41;18.30;40.90
70460;DHT22;57920;54.796;9.430;2022-11-20T09:58:35;18.30;40.90
70460;DHT22;57920;54.796;9.430;2022-11-20T10:01:26;18.30;40.90
70460;DHT22;57920;54.796;9.430;2022-11-20T10:04:06;18.40;40.70
70460;DHT22;57920;54.796;9.430;2022-11-20T10:06:41;18.40;40.80
70460;DHT22;57920;54.796;9.430;2022-11-20T10:17:57;18.50;40.50
70460;DHT22;57920;54.796;9.430;2022-11-20T10:23:44;18.50;40.50
70460;DHT22;57920;54.796;9.430;2022-11-20T10:29:06;18.50;40.60
70460;DHT22;57920;54.796;9.430;2022-11-20T10:31:35;18.50;40.50
70460;DHT22;57920;54.796;9.430;2022-11-20T10:34:06;18.50;40.60
70460;DHT22;57920;54.796;9.430;2022-11-20T10:36:44;18.40;40.70
70460;DHT22;57920;54.796;9.430;2022-11-20T10:39:18;18.40;40.70
70460;DHT22;57920;54.796;9.430;2022-11-20T10:41:50;18.40;40.70
70460;DHT22;57920;54.796;9.430;2022-11-20T10:44:20;18.30;40.70
70460;DHT22;57920;54.796;9.430;2022-11-20T10:47:05;18.30;40.70
70460;DHT22;57920;54.796;9.430;2022-11-20T10:49:35;18.30;40.70
70460;DHT22;57920;54.796;9.430;2022-11-20T11:00:10;18.40;40.50
70460;DHT22;57920;54.796;9.430;2022-11-20T11:02:51;18.40;40.40
70460;DHT22;57920;54.796;9.430;2022-11-20T11:07:46;18.50;40.20
70460;DHT22;57920;54.796;9.430;2022-11-20T11:10:38;18.50;40.20
70460;DHT22;57920;54.796;9.430;2022-11-20T11:13:06;18.60;40.20
70460;DHT22;57920;54.796;9.430;2022-11-20T11:15:40;18.50;40.20
70460;DHT22;57920;54.796;9.430;2022-11-20T11:18:23;18.50;40.20
70460;DHT22;57920;54.796;9.430;2022-11-20T11:20:53;18.50;40.30
70460;DHT22;57920;54.796;9.430;2022-11-20T11:23:33;18.40;40.40
70460;DHT22;57920;54.796;9.430;2022-11-20T11:26:03;18.40;40.30
70460;DHT22;57920;54.796;9.430;2022-11-20T11:28:29;18.40;40.40
70460;DHT22;57920;54.796;9.430;2022-11-20T11:30:54;18.30;40.50
70460;DHT22;57920;54.796;9.430;2022-11-20T11:33:24;18.30;40.50
70460;DHT22;57920;54.796;9.430;2022-11-20T11:35:55;18.30;40.50
70460;DHT22;57920;54.796;9.430;2022-11-20T11:38:42;18.30;40.50
70460;DHT22;57920;54.796;9.430;2022-11-20T11:41:22;18.30;40.50
70460;DHT22;57920;54.796;9.430;2022-11-20T11:44:21;18.30;40.50
70460;DHT22;57920;54.796;9.430;2022-11-20T11:47:16;18.30;40.50
70460;DHT22;57920;54.796;9.430;2022-11-20T11:49:45;18.40;40.20
70460;DHT22;57920;54.796;9.430;2022-11-20T11:52:17;18.40;40.20
70460;DHT22;57920;54.796;9.430;2022-11-20T11:54:53;18.50;40.20
70460;DHT22;57920;54.796;9.430;2022-11-20T12:00:09;18.60;40.00
70460;DHT22;57920;54.796;9.430;2022-11-20T12:02:36;18.60;40.00
70460;DHT22;57920;54.796;9.430;2022-11-20T12:08:03;18.60;40.10
70460;DHT22;57920;54.796;9.430;2022-11-20T12:15:55;18.50;40.20
70460;DHT22;57920;54.796;9.430;2022-11-20T12:18:22;18.40;40.30
70460;DHT22;57920;54.796;9.430;2022-11-20T12:23:36;18.30;40.50
70460;DHT22;57920;54.796;9.430;2022-11-20T12:43:31;18.40;40.20
70460;DHT22;57920;54.796;9.430;2022-11-20T12:57:29;18.60;40.00
70460;DHT22;57920;54.796;9.430;2022-11-20T13:00:19;18.60;39.90
70460;DHT22;57920;54.796;9.430;2022-11-20T13:06:05;18.60;39.90
70460;DHT22;57920;54.796;9.430;2022-11-20T13:08:38;18.50;40.00
70460;DHT22;57920;54.796;9.430;2022-11-20T13:14:11;18.50;40.00
70460;DHT22;57920;54.796;9.430;2022-11-20T13:17:24;18.50;40.00
70460;DHT22;57920;54.796;9.430;2022-11-20T13:19:41;18.40;40.10
70460;DHT22;57920;54.796;9.430;2022-11-20T13:22:11;18.40;40.10
70460;DHT22;57920;54.796;9.430;2022-11-20T13:24:36;18.30;40.10
70460;DHT22;57920;54.796;9.430;2022-11-20T13:29:35;18.30;40.20
70460;DHT22;57920;54.796;9.430;2022-11-20T13:32:14;18.30;40.20
70460;DHT22;57920;54.796;9.430;2022-11-20T13:34:52;18.30;40.20
70460;DHT22;57920;54.796;9.430;2022-11-20T13:40:19;18.40;39.90
70460;DHT22;57920;54.796;9.430;2022-11-20T13:43:35;18.50;39.90
70460;DHT22;57920;54.796;9.430;2022-11-20T13:45:40;18.50;39.80
70460;DHT22;57920;54.796;9.430;2022-11-20T13:48:27;18.60;39.70
70460;DHT22;57920;54.796;9.430;2022-11-20T13:56:40;18.60;39.60
70460;DHT22;57920;54.796;9.430;2022-11-20T13:59:46;18.60;39.70
70460;DHT22;57920;54.796;9.430;2022-11-20T14:02:14;18.60;39.70
70460;DHT22;57920;54.796;9.430;2022-11-20T14:04:48;18.50;39.70
70460;DHT22;57920;54.796;9.430;2022-11-20T14:07:15;18.50;39.70
70460;DHT22;57920;54.796;9.430;2022-11-20T14:09:53;18.50;39.70
70460;DHT22;57920;54.796;9.430;2022-11-20T14:12:21;18.40;39.80
70460;DHT22;57920;54.796;9.430;2022-11-20T14:14:52;18.40;39.90
70460;DHT22;57920;54.796;9.430;2022-11-20T14:19:47;18.30;40.00
70460;DHT22;57920;54.796;9.430;2022-11-20T14:22:22;18.30;40.00
70460;DHT22;57920;54.796;9.430;2022-11-20T14:27:45;18.30;40.00
70460;DHT22;57920;54.796;9.430;2022-11-20T14:30:17;18.30;40.00
70460;DHT22;57920;54.796;9.430;2022-11-20T14:32:44;18.30;39.80
70460;DHT22;57920;54.796;9.430;2022-11-20T14:35:30;18.40;39.90
70460;DHT22;57920;54.796;9.430;2022-11-20T14:37:56;18.40;39.70
70460;DHT22;57920;54.796;9.430;2022-11-20T14:40:29;18.50;39.70
70460;DHT22;57920;54.796;9.430;2022-11-20T14:42:55;18.60;39.60
70460;DHT22;57920;54.796;9.430;2022-11-20T14:45:22;18.60;39.50
70460;DHT22;57920;54.796;9.430;2022-11-20T14:47:48;18.60;39.50
70460;DHT22;57920;54.796;9.430;2022-11-20T14:50:24;18.60;39.50
70460;DHT22;57920;54.796;9.430;2022-11-20T14:53:00;18.70;39.50
70460;DHT22;57920;54.796;9.430;2022-11-20T14:55:35;18.70;39.40
70460;DHT22;57920;54.796;9.430;2022-11-20T14:58:04;18.60;39.50
70460;DHT22;57920;54.796;9.430;2022-11-20T15:00:30;18.60;39.50
70460;DHT22;57920;54.796;9.430;2022-11-20T15:02:56;18.60;39.40
70460;DHT22;57920;54.796;9.430;2022-11-20T15:05:46;18.50;39.40
70460;DHT22;57920;54.796;9.430;2022-11-20T15:08:14;18.50;39.50
70460;DHT22;57920;54.796;9.430;2022-11-20T15:10:46;18.40;39.70
70460;DHT22;57920;54.796;9.430;2022-11-20T15:13:15;18.40;39.70
70460;DHT22;57920;54.796;9.430;2022-11-20T15:18:15;18.30;39.80
70460;DHT22;57920;54.796;9.430;2022-11-20T15:20:42;18.30;39.80
70460;DHT22;57920;54.796;9.430;2022-11-20T15:23:11;18.30;40.00
70460;DHT22;57920;54.796;9.430;2022-11-20T15:25:39;18.30;39.70
70460;DHT22;57920;54.796;9.430;2022-11-20T15:28:07;18.40;39.70
70460;DHT22;57920;54.796;9.430;2022-11-20T15:30:35;18.40;39.70
70460;DHT22;57920;54.796;9.430;2022-11-20T15:33:01;18.50;39.50
70460;DHT22;57920;54.796;9.430;2022-11-20T15:35:26;18.50;39.50
70460;DHT22;57920;54.796;9.430;2022-11-20T15:37:52;18.50;39.40
70460;DHT22;57920;54.796;9.430;2022-11-20T15:40:17;18.60;39.30
70460;DHT22;57920;54.796;9.430;2022-11-20T15:42:43;18.60;39.40
70460;DHT22;57920;54.796;9.430;2022-11-20T15:45:29;18.60;39.30
70460;DHT22;57920;54.796;9.430;2022-11-20T15:47:56;18.50;39.40
70460;DHT22;57920;54.796;9.430;2022-11-20T15:50:27;18.50;39.40
70460;DHT22;57920;54.796;9.430;2022-11-20T15:52:54;18.50;39.40
70460;DHT22;57920;54.796;9.430;2022-11-20T15:55:20;18.50;39.50
70460;DHT22;57920;54.796;9.430;2022-11-20T15:57:45;18.40;39.50
70460;DHT22;57920;54.796;9.430;2022-11-20T16:00:11;18.40;39.50
70460;DHT22;57920;54.796;9.430;2022-11-20T16:02:37;18.40;39.50
70460;DHT22;57920;54.796;9.430;2022-11-20T16:05:03;18.40;39.50
70460;DHT22;57920;54.796;9.430;2022-11-20T16:07:29;18.30;39.60
70460;DHT22;57920;54.796;9.430;2022-11-20T16:09:54;18.30;39.60
70460;DHT22;57920;54.796;9.430;2022-11-20T16:12:21;18.30;39.50
70460;DHT22;57920;54.796;9.430;2022-11-20T16:15:07;18.30;39.50
70460;DHT22;57920;54.796;9.430;2022-11-20T16:17:51;18.30;39.50
70460;DHT22;57920;54.796;9.430;2022-11-20T16:20:17;18.40;39.30
70460;DHT22;57920;54.796;9.430;2022-11-20T16:22:42;18.40;39.40
70460;DHT22;57920;54.796;9.430;2022-11-20T16:25:08;18.40;39.30
70460;DHT22;57920;54.796;9.430;2022-11-20T16:27:33;18.50;39.20
70460;DHT22;57920;54.796;9.430;2022-11-20T16:29:59;18.50;39.20
70460;DHT22;57920;54.796;9.430;2022-11-20T16:32:24;18.50;39.20
70460;DHT22;57920;54.796;9.430;2022-11-20T16:34:50;18.50;39.20
70460;DHT22;57920;54.796;9.430;2022-11-20T16:37:15;18.50;39.20
70460;DHT22;57920;54.796;9.430;2022-11-20T16:39:41;18.50;39.30
70460;DHT22;57920;54.796;9.430;2022-11-20T16:42:07;18.40;39.30
70460;DHT22;57920;54.796;9.430;2022-11-20T16:44:32;18.40;39.30
70460;DHT22;57920;54.796;9.430;2022-11-20T16:46:59;18.40;39.40
70460;DHT22;57920;54.796;9.430;2022-11-20T16:49:24;18.30;39.50
70460;DHT22;57920;54.796;9.430;2022-11-20T16:51:50;18.30;39.50
70460;DHT22;57920;54.796;9.430;2022-11-20T16:54:16;18.20;39.60
70460;DHT22;57920;54.796;9.430;2022-11-20T16:56:41;18.20;39.70
70460;DHT22;57920;54.796;9.430;2022-11-20T16:59:07;18.20;39.60
70460;DHT22;57920;54.796;9.430;2022-11-20T17:01:33;18.20;39.60
70460;DHT22;57920;54.796;9.430;2022-11-20T17:04:02;18.20;39.80
70460;DHT22;57920;54.796;9.430;2022-11-20T17:06:32;18.20;39.60
70460;DHT22;57920;54.796;9.430;2022-11-20T17:08:58;18.30;39.40
70460;DHT22;57920;54.796;9.430;2022-11-20T17:11:24;18.30;39.50
70460;DHT22;57920;54.796;9.430;2022-11-20T17:13:50;18.40;39.50
70460;DHT22;57920;54.796;9.430;2022-11-20T17:16:21;18.40;39.40
70460;DHT22;57920;54.796;9.430;2022-11-20T17:18:48;18.50;39.30
70460;DHT22;57920;54.796;9.430;2022-11-20T17:21:15;18.50;39.30
70460;DHT22;57920;54.796;9.430;2022-11-20T17:23:42;18.50;39.30
70460;DHT22;57920;54.796;9.430;2022-11-20T17:26:14;18.50;39.30